Rosnes — LK4100 — position and weather

sailwx.info

Track history (hours):
 
Tides and Currents Weather Stations Pressure Air Temp Water Temp Dewpoint Dewpoint Depression Visibility Wind Speed Wind Dir Waves Ship Positions

Rosnes

Last reported at 2017-Nov-16 09:01 UTC. Time now 2017-Dec-18 14:39 UTC.
Position N 70°15' E 021°47'.
Warning: this ship's position is 32 days out of date.

Length 19 m.

Type: Fishing. MMSI: 257045240.

Date/timePositionNaut miles runAvg speedWind from/ knotsBaromVisibWave heightAir tempDewpointWater temp
2017-Nov-16 09:01N 70°15' E 021°47'0 1.5
2017-Nov-16 08:54N 70°15' E 021°47'0 0.0
2017-Nov-15 14:56N 70°15' E 021°47'0 0.3
2017-Nov-15 14:09N 70°15' E 021°47'5 6.5
2017-Nov-15 13:26N 70°19' E 021°38'2 5.2
2017-Nov-15 13:00N 70°20' E 021°32'4 7.5
2017-Nov-15 12:26N 70°18' E 021°21'3 4.7
2017-Nov-15 11:50N 70°17' E 021°13'1 2.1
2017-Nov-15 11:25N 70°16' E 021°12'2 5.2
2017-Nov-15 10:59N 70°14' E 021°09'4 7.2
2017-Nov-15 10:25N 70°10' E 021°14'3 7.6
2017-Nov-15 09:59N 70°08' E 021°20'4 7.5
2017-Nov-15 09:30N 70°05' E 021°26'2 4.6
2017-Nov-15 08:58N 70°02' E 021°29'0 0.5
2017-Nov-15 08:25N 70°03' E 021°28'0 0.3
2017-Nov-15 07:51N 70°02' E 021°29'0 0.4
2017-Nov-15 07:27N 70°02' E 021°29'1 3.1
2017-Nov-15 07:00N 70°02' E 021°25'4 7.1
2017-Nov-15 06:30N 70°01' E 021°15'4 7.0
2017-Nov-15 05:59N 70°02' E 021°05'2 0.1
2017-Nov-14 12:16N 70°02' E 020°59'0 0.5
2017-Nov-14 12:00N 70°02' E 020°59'1 2.3
2017-Nov-14 11:30N 70°02' E 021°02'4 7.1
2017-Nov-14 11:00N 70°01' E 021°13'4 7.1
2017-Nov-14 10:29N 70°02' E 021°23'2 3.9
2017-Nov-14 10:00N 70°02' E 021°28'1 1.1
2017-Nov-14 09:27N 70°02' E 021°28'3 6.4
2017-Nov-14 09:00N 70°02' E 021°19'3 5.2
2017-Nov-14 08:30N 70°02' E 021°12'0 0.5
2017-Nov-14 08:00N 70°02' E 021°11'2 3.6
2017-Nov-14 07:31N 70°01' E 021°07'0 0.5
2017-Nov-14 06:59N 70°01' E 021°06'0 0.7
2017-Nov-14 06:30N 70°01' E 021°06'3 4.8
2017-Nov-14 05:57N 70°02' E 020°59'7 0.3
2017-Nov-13 01:55N 70°03' E 020°38'0 0.0
2017-Nov-13 01:28N 70°03' E 020°38'0 0.0
2017-Nov-13 00:58N 70°03' E 020°38'0 0.0
2017-Nov-13 00:28N 70°03' E 020°38'0 0.0
2017-Nov-12 23:58N 70°03' E 020°38'0 0.0
2017-Nov-12 23:28N 70°03' E 020°38'0 0.0
2017-Nov-12 22:52N 70°03' E 020°38'0 0.0
2017-Nov-12 22:28N 70°03' E 020°38'0 0.0
2017-Nov-12 21:58N 70°03' E 020°38'0 0.0
2017-Nov-12 21:28N 70°03' E 020°38'0 0.0
2017-Nov-12 20:55N 70°03' E 020°38'0 0.0
2017-Nov-12 20:25N 70°03' E 020°38'0 0.0
2017-Nov-12 19:55N 70°03' E 020°38'0 0.1
2017-Nov-12 19:30N 70°03' E 020°38'3 6.3
2017-Nov-12 19:00N 70°01' E 020°30'4 8.0
2017-Nov-12 18:29N 70°02' E 020°18'4 8.2
2017-Nov-12 17:59N 70°02' E 020°06'4 8.4
2017-Nov-12 17:30N 70°02' E 019°54'4 8.2
2017-Nov-12 17:00N 70°03' E 019°42'4 7.5
2017-Nov-12 16:30N 70°04' E 019°32'4 7.6
2017-Nov-12 16:00N 70°05' E 019°21'4 7.9
2017-Nov-12 15:30N 70°06' E 019°10'4 7.8
2017-Nov-12 15:00N 70°04' E 018°59'4 7.8
2017-Nov-12 14:30N 70°02' E 018°50'4 7.5
2017-Nov-12 13:59N 69°58' E 018°44'4 7.4
2017-Nov-12 13:30N 69°55' E 018°40'4 7.6
2017-Nov-12 13:00N 69°51' E 018°38'4 7.6
2017-Nov-12 12:30N 69°48' E 018°40'4 7.4
2017-Nov-12 11:59N 69°44' E 018°40'3 5.2
2017-Nov-12 11:28N 69°41' E 018°44'0 0.0
2017-Nov-12 10:58N 69°41' E 018°44'0 0.0
2017-Nov-12 10:28N 69°41' E 018°44'0 0.0
2017-Nov-12 09:55N 69°41' E 018°44'0 0.0
2017-Nov-12 09:28N 69°41' E 018°44'0 0.0
2017-Nov-12 08:58N 69°41' E 018°44'0 0.0
2017-Nov-12 08:28N 69°41' E 018°44'0 0.0
2017-Nov-12 07:58N 69°41' E 018°44'0 0.0
2017-Nov-12 07:28N 69°41' E 018°44'0 0.0
2017-Nov-12 06:58N 69°41' E 018°44'0 0.0
2017-Nov-12 06:28N 69°41' E 018°44'0 0.0
2017-Nov-12 05:58N 69°41' E 018°44'0 0.0
2017-Nov-12 05:28N 69°41' E 018°44'0 0.0
2017-Nov-12 04:58N 69°41' E 018°44'0 0.0
2017-Nov-12 04:28N 69°41' E 018°44'0 0.0
2017-Nov-12 03:58N 69°41' E 018°44'0 0.0
2017-Nov-12 03:28N 69°41' E 018°44'0 0.0
2017-Nov-12 02:58N 69°41' E 018°44'0 0.0
2017-Nov-12 02:28N 69°41' E 018°44'0 0.0
2017-Nov-12 01:58N 69°41' E 018°44'0 0.0
2017-Nov-12 01:28N 69°41' E 018°44'0 0.0
2017-Nov-12 00:55N 69°41' E 018°44'0 0.0
2017-Nov-12 00:28N 69°41' E 018°44'0 0.0
2017-Nov-11 23:58N 69°41' E 018°44'0 0.0
2017-Nov-11 23:28N 69°41' E 018°44'0 0.0
2017-Nov-11 22:58N 69°41' E 018°44'0 0.0
2017-Nov-11 22:28N 69°41' E 018°44'0 0.0
2017-Nov-11 21:58N 69°41' E 018°44'0 0.0
2017-Nov-11 21:28N 69°41' E 018°44'0 0.0
2017-Nov-11 20:58N 69°41' E 018°44'0 0.0
2017-Nov-11 20:28N 69°41' E 018°44'0 0.0
2017-Nov-11 19:58N 69°41' E 018°44'0 0.0
2017-Nov-11 19:28N 69°41' E 018°44'0 0.0
2017-Nov-11 18:58N 69°41' E 018°44'0 0.0
2017-Nov-11 18:28N 69°41' E 018°44'0 0.0
2017-Nov-11 17:58N 69°41' E 018°44'0 0.0
2017-Nov-11 17:28N 69°41' E 018°44'0 0.0
2017-Nov-11 16:58N 69°41' E 018°44'0 0.0
2017-Nov-11 16:28N 69°41' E 018°44'0 0.0
2017-Nov-11 15:58N 69°41' E 018°44'0 0.0
2017-Nov-11 15:28N 69°41' E 018°44'0 0.0
2017-Nov-11 14:58N 69°41' E 018°44'0 0.0
2017-Nov-11 14:28N 69°41' E 018°44'0 0.0
2017-Nov-11 13:58N 69°41' E 018°44'0 0.0
2017-Nov-11 13:28N 69°41' E 018°44'0 0.0
2017-Nov-11 12:58N 69°41' E 018°44'0 0.0
2017-Nov-11 12:28N 69°41' E 018°44'0 0.0
2017-Nov-11 11:55N 69°41' E 018°44'0 0.0
2017-Nov-11 11:28N 69°41' E 018°44'0 0.0
2017-Nov-11 10:58N 69°41' E 018°44'0 0.0
2017-Nov-11 10:28N 69°41' E 018°44'0 0.0
2017-Nov-11 09:58N 69°41' E 018°44'0 0.0
2017-Nov-11 09:28N 69°41' E 018°44'0 0.0
2017-Nov-11 08:58N 69°41' E 018°44'0 0.0
2017-Nov-11 08:28N 69°41' E 018°44'0 0.0
2017-Nov-11 07:58N 69°41' E 018°44'0 0.0
2017-Nov-11 07:28N 69°41' E 018°44'0 0.0
2017-Nov-11 06:58N 69°41' E 018°44'0 0.0
2017-Nov-11 06:28N 69°41' E 018°44'0 0.0
2017-Nov-11 05:58N 69°41' E 018°44'0 0.0
2017-Nov-11 05:28N 69°41' E 018°44'0 0.0
2017-Nov-11 04:58N 69°41' E 018°44'0 0.0
2017-Nov-11 04:28N 69°41' E 018°44'0 0.0
2017-Nov-11 03:58N 69°41' E 018°44'0 0.0
2017-Nov-11 03:28N 69°41' E 018°44'0 0.0
2017-Nov-11 02:58N 69°41' E 018°44'0 0.0
2017-Nov-11 02:28N 69°41' E 018°44'0 0.0
2017-Nov-11 01:55N 69°41' E 018°44'0 0.0
2017-Nov-11 01:28N 69°41' E 018°44'0 0.0
2017-Nov-11 00:58N 69°41' E 018°44'0 0.0
2017-Nov-11 00:28N 69°41' E 018°44'0 0.0
2017-Nov-10 23:58N 69°41' E 018°44'0 0.0
2017-Nov-10 23:28N 69°41' E 018°44'0 0.0
2017-Nov-10 22:58N 69°41' E 018°44'0 0.0
2017-Nov-10 22:28N 69°41' E 018°44'0 0.0
2017-Nov-10 21:58N 69°41' E 018°44'0 0.0
2017-Nov-10 21:28N 69°41' E 018°44'0 0.0
2017-Nov-10 20:58N 69°41' E 018°44'0 0.0
2017-Nov-10 20:28N 69°41' E 018°44'0 0.0
2017-Nov-10 19:58N 69°41' E 018°44'0 0.0
2017-Nov-10 19:28N 69°41' E 018°44'0 0.0
2017-Nov-10 18:58N 69°41' E 018°44'0 0.0
2017-Nov-10 18:28N 69°41' E 018°44'0 0.0
2017-Nov-10 17:58N 69°41' E 018°44'0 0.0
2017-Nov-10 17:28N 69°41' E 018°44'0 0.0
2017-Nov-10 16:58N 69°41' E 018°44'0 0.0
2017-Nov-10 16:28N 69°41' E 018°44'0 0.0
2017-Nov-10 15:58N 69°41' E 018°44'0 0.0
2017-Nov-10 15:28N 69°41' E 018°44'0 0.0
2017-Nov-10 14:58N 69°41' E 018°44'2 3.4
2017-Nov-10 14:30N 69°42' E 018°40'4 7.4
2017-Nov-10 14:00N 69°46' E 018°40'3 5.9
2017-Nov-10 13:30N 69°48' E 018°35'4 3.3
2017-Nov-10 12:12N 69°47' E 018°24'0 0.3
2017-Nov-10 11:52N 69°47' E 018°24'0 0.1
2017-Nov-10 09:26N 69°47' E 018°24'0 0.0
2017-Nov-10 08:50N 69°47' E 018°24'0 0.0
2017-Nov-10 08:08N 69°47' E 018°24'0 0.0
2017-Nov-10 07:38N 69°47' E 018°24'0 0.0
2017-Nov-10 06:50N 69°47' E 018°24'0 0.0
2017-Nov-10 06:26N 69°47' E 018°24'0 0.0
2017-Nov-10 05:50N 69°47' E 018°24'0 0.0
2017-Nov-10 05:08N 69°47' E 018°24'0 0.0
2017-Nov-10 04:38N 69°47' E 018°24'0 0.0
2017-Nov-10 03:26N 69°47' E 018°24'0 0.0
2017-Nov-10 02:20N 69°47' E 018°24'0 0.0
2017-Nov-10 01:08N 69°47' E 018°24'0 0.0
2017-Nov-10 00:20N 69°47' E 018°24'0 0.0
2017-Nov-09 23:44N 69°47' E 018°24'0 0.0
2017-Nov-09 23:20N 69°47' E 018°24'0 0.0
2017-Nov-09 22:32N 69°47' E 018°24'0 0.0
2017-Nov-09 22:20N 69°47' E 018°24'0 0.0
2017-Nov-09 21:32N 69°47' E 018°24'0 0.0
2017-Nov-09 20:44N 69°47' E 018°24'0 0.0
2017-Nov-09 20:08N 69°47' E 018°24'0 0.0
2017-Nov-09 13:20N 69°47' E 018°24'0 0.0
2017-Nov-09 00:08N 69°47' E 018°24'0 0.0
2017-Nov-08 23:38N 69°47' E 018°24'0 0.0
2017-Nov-08 18:38N 69°47' E 018°24'0 0.0
2017-Nov-08 17:14N 69°47' E 018°24'0 0.0
2017-Nov-08 08:02N 69°47' E 018°24'0 0.0
2017-Nov-08 07:38N 69°47' E 018°24'0 0.0
2017-Nov-08 07:26N 69°47' E 018°24'0 0.0
2017-Nov-08 05:56N 69°47' E 018°24'0 0.0
2017-Nov-08 05:02N 69°47' E 018°24'0 0.0
2017-Nov-08 04:38N 69°47' E 018°24'0 0.0
2017-Nov-08 04:14N 69°47' E 018°24'0 0.0
2017-Nov-07 22:02N 69°47' E 018°24'0 0.0
2017-Nov-07 17:14N 69°47' E 018°24'0 0.0
2017-Nov-07 01:44N 69°47' E 018°24'0 0.0
2017-Nov-07 00:32N 69°47' E 018°24'  
Track history (hours):
 
Tides and Currents Weather Stations Pressure Air Temp Water Temp Dewpoint Dewpoint Depression Visibility Wind Speed Wind Dir Waves Ship Positions

Rosnes

Last reported at 2017-Nov-16 09:01 UTC. Time now 2017-Dec-18 14:39 UTC.
Position N 70°15' E 021°47'.
Warning: this ship's position is 32 days out of date.

Length 19 m.

Type: Fishing. MMSI: 257045240.

Date/timePositionNaut miles runAvg speedWind from/ knotsBaromVisibWave heightAir tempDewpointWater temp
2017-Nov-16 09:01N 70°15' E 021°47'0 1.5
2017-Nov-16 08:54N 70°15' E 021°47'0 0.0
2017-Nov-15 14:56N 70°15' E 021°47'0 0.3
2017-Nov-15 14:09N 70°15' E 021°47'5 6.5
2017-Nov-15 13:26N 70°19' E 021°38'2 5.2
2017-Nov-15 13:00N 70°20' E 021°32'4 7.5
2017-Nov-15 12:26N 70°18' E 021°21'3 4.7
2017-Nov-15 11:50N 70°17' E 021°13'1 2.1
2017-Nov-15 11:25N 70°16' E 021°12'2 5.2
2017-Nov-15 10:59N 70°14' E 021°09'4 7.2
2017-Nov-15 10:25N 70°10' E 021°14'3 7.6
2017-Nov-15 09:59N 70°08' E 021°20'4 7.5
2017-Nov-15 09:30N 70°05' E 021°26'2 4.6
2017-Nov-15 08:58N 70°02' E 021°29'0 0.5
2017-Nov-15 08:25N 70°03' E 021°28'0 0.3
2017-Nov-15 07:51N 70°02' E 021°29'0 0.4
2017-Nov-15 07:27N 70°02' E 021°29'1 3.1
2017-Nov-15 07:00N 70°02' E 021°25'4 7.1
2017-Nov-15 06:30N 70°01' E 021°15'4 7.0
2017-Nov-15 05:59N 70°02' E 021°05'2 0.1
2017-Nov-14 12:16N 70°02' E 020°59'0 0.5
2017-Nov-14 12:00N 70°02' E 020°59'1 2.3
2017-Nov-14 11:30N 70°02' E 021°02'4 7.1
2017-Nov-14 11:00N 70°01' E 021°13'4 7.1
2017-Nov-14 10:29N 70°02' E 021°23'2 3.9
2017-Nov-14 10:00N 70°02' E 021°28'1 1.1
2017-Nov-14 09:27N 70°02' E 021°28'3 6.4
2017-Nov-14 09:00N 70°02' E 021°19'3 5.2
2017-Nov-14 08:30N 70°02' E 021°12'0 0.5
2017-Nov-14 08:00N 70°02' E 021°11'2 3.6
2017-Nov-14 07:31N 70°01' E 021°07'0 0.5
2017-Nov-14 06:59N 70°01' E 021°06'0 0.7
2017-Nov-14 06:30N 70°01' E 021°06'3 4.8
2017-Nov-14 05:57N 70°02' E 020°59'7 0.3
2017-Nov-13 01:55N 70°03' E 020°38'0 0.0
2017-Nov-13 01:28N 70°03' E 020°38'0 0.0
2017-Nov-13 00:58N 70°03' E 020°38'0 0.0
2017-Nov-13 00:28N 70°03' E 020°38'0 0.0
2017-Nov-12 23:58N 70°03' E 020°38'0 0.0
2017-Nov-12 23:28N 70°03' E 020°38'0 0.0
2017-Nov-12 22:52N 70°03' E 020°38'0 0.0
2017-Nov-12 22:28N 70°03' E 020°38'0 0.0
2017-Nov-12 21:58N 70°03' E 020°38'0 0.0
2017-Nov-12 21:28N 70°03' E 020°38'0 0.0
2017-Nov-12 20:55N 70°03' E 020°38'0 0.0
2017-Nov-12 20:25N 70°03' E 020°38'0 0.0
2017-Nov-12 19:55N 70°03' E 020°38'0 0.1
2017-Nov-12 19:30N 70°03' E 020°38'3 6.3
2017-Nov-12 19:00N 70°01' E 020°30'4 8.0
2017-Nov-12 18:29N 70°02' E 020°18'4 8.2
2017-Nov-12 17:59N 70°02' E 020°06'4 8.4
2017-Nov-12 17:30N 70°02' E 019°54'4 8.2
2017-Nov-12 17:00N 70°03' E 019°42'4 7.5
2017-Nov-12 16:30N 70°04' E 019°32'4 7.6
2017-Nov-12 16:00N 70°05' E 019°21'4 7.9
2017-Nov-12 15:30N 70°06' E 019°10'4 7.8
2017-Nov-12 15:00N 70°04' E 018°59'4 7.8
2017-Nov-12 14:30N 70°02' E 018°50'4 7.5
2017-Nov-12 13:59N 69°58' E 018°44'4 7.4
2017-Nov-12 13:30N 69°55' E 018°40'4 7.6
2017-Nov-12 13:00N 69°51' E 018°38'4 7.6
2017-Nov-12 12:30N 69°48' E 018°40'4 7.4
2017-Nov-12 11:59N 69°44' E 018°40'3 5.2
2017-Nov-12 11:28N 69°41' E 018°44'0 0.0
2017-Nov-12 10:58N 69°41' E 018°44'0 0.0
2017-Nov-12 10:28N 69°41' E 018°44'0 0.0
2017-Nov-12 09:55N 69°41' E 018°44'0 0.0
2017-Nov-12 09:28N 69°41' E 018°44'0 0.0
2017-Nov-12 08:58N 69°41' E 018°44'0 0.0
2017-Nov-12 08:28N 69°41' E 018°44'0 0.0
2017-Nov-12 07:58N 69°41' E 018°44'0 0.0
2017-Nov-12 07:28N 69°41' E 018°44'0 0.0
2017-Nov-12 06:58N 69°41' E 018°44'0 0.0
2017-Nov-12 06:28N 69°41' E 018°44'0 0.0
2017-Nov-12 05:58N 69°41' E 018°44'0 0.0
2017-Nov-12 05:28N 69°41' E 018°44'0 0.0
2017-Nov-12 04:58N 69°41' E 018°44'0 0.0
2017-Nov-12 04:28N 69°41' E 018°44'0 0.0
2017-Nov-12 03:58N 69°41' E 018°44'0 0.0
2017-Nov-12 03:28N 69°41' E 018°44'0 0.0
2017-Nov-12 02:58N 69°41' E 018°44'0 0.0
2017-Nov-12 02:28N 69°41' E 018°44'0 0.0
2017-Nov-12 01:58N 69°41' E 018°44'0 0.0
2017-Nov-12 01:28N 69°41' E 018°44'0 0.0
2017-Nov-12 00:55N 69°41' E 018°44'0 0.0
2017-Nov-12 00:28N 69°41' E 018°44'0 0.0
2017-Nov-11 23:58N 69°41' E 018°44'0 0.0
2017-Nov-11 23:28N 69°41' E 018°44'0 0.0
2017-Nov-11 22:58N 69°41' E 018°44'0 0.0
2017-Nov-11 22:28N 69°41' E 018°44'0 0.0
2017-Nov-11 21:58N 69°41' E 018°44'0 0.0
2017-Nov-11 21:28N 69°41' E 018°44'0 0.0
2017-Nov-11 20:58N 69°41' E 018°44'0 0.0
2017-Nov-11 20:28N 69°41' E 018°44'0 0.0
2017-Nov-11 19:58N 69°41' E 018°44'0 0.0
2017-Nov-11 19:28N 69°41' E 018°44'0 0.0
2017-Nov-11 18:58N 69°41' E 018°44'0 0.0
2017-Nov-11 18:28N 69°41' E 018°44'0 0.0
2017-Nov-11 17:58N 69°41' E 018°44'0 0.0
2017-Nov-11 17:28N 69°41' E 018°44'0 0.0
2017-Nov-11 16:58N 69°41' E 018°44'0 0.0
2017-Nov-11 16:28N 69°41' E 018°44'0 0.0
2017-Nov-11 15:58N 69°41' E 018°44'0 0.0
2017-Nov-11 15:28N 69°41' E 018°44'0 0.0
2017-Nov-11 14:58N 69°41' E 018°44'0 0.0
2017-Nov-11 14:28N 69°41' E 018°44'0 0.0
2017-Nov-11 13:58N 69°41' E 018°44'0 0.0
2017-Nov-11 13:28N 69°41' E 018°44'0 0.0
2017-Nov-11 12:58N 69°41' E 018°44'0 0.0
2017-Nov-11 12:28N 69°41' E 018°44'0 0.0
2017-Nov-11 11:55N 69°41' E 018°44'0 0.0
2017-Nov-11 11:28N 69°41' E 018°44'0 0.0
2017-Nov-11 10:58N 69°41' E 018°44'0 0.0
2017-Nov-11 10:28N 69°41' E 018°44'0 0.0
2017-Nov-11 09:58N 69°41' E 018°44'0 0.0
2017-Nov-11 09:28N 69°41' E 018°44'0 0.0
2017-Nov-11 08:58N 69°41' E 018°44'0 0.0
2017-Nov-11 08:28N 69°41' E 018°44'0 0.0
2017-Nov-11 07:58N 69°41' E 018°44'0 0.0
2017-Nov-11 07:28N 69°41' E 018°44'0 0.0
2017-Nov-11 06:58N 69°41' E 018°44'0 0.0
2017-Nov-11 06:28N 69°41' E 018°44'0 0.0
2017-Nov-11 05:58N 69°41' E 018°44'0 0.0
2017-Nov-11 05:28N 69°41' E 018°44'0 0.0
2017-Nov-11 04:58N 69°41' E 018°44'0 0.0
2017-Nov-11 04:28N 69°41' E 018°44'0 0.0
2017-Nov-11 03:58N 69°41' E 018°44'0 0.0
2017-Nov-11 03:28N 69°41' E 018°44'0 0.0
2017-Nov-11 02:58N 69°41' E 018°44'0 0.0
2017-Nov-11 02:28N 69°41' E 018°44'0 0.0
2017-Nov-11 01:55N 69°41' E 018°44'0 0.0
2017-Nov-11 01:28N 69°41' E 018°44'0 0.0
2017-Nov-11 00:58N 69°41' E 018°44'0 0.0
2017-Nov-11 00:28N 69°41' E 018°44'0 0.0
2017-Nov-10 23:58N 69°41' E 018°44'0 0.0
2017-Nov-10 23:28N 69°41' E 018°44'0 0.0
2017-Nov-10 22:58N 69°41' E 018°44'0 0.0
2017-Nov-10 22:28N 69°41' E 018°44'0 0.0
2017-Nov-10 21:58N 69°41' E 018°44'0 0.0
2017-Nov-10 21:28N 69°41' E 018°44'0 0.0
2017-Nov-10 20:58N 69°41' E 018°44'0 0.0
2017-Nov-10 20:28N 69°41' E 018°44'0 0.0
2017-Nov-10 19:58N 69°41' E 018°44'0 0.0
2017-Nov-10 19:28N 69°41' E 018°44'0 0.0
2017-Nov-10 18:58N 69°41' E 018°44'0 0.0
2017-Nov-10 18:28N 69°41' E 018°44'0 0.0
2017-Nov-10 17:58N 69°41' E 018°44'0 0.0
2017-Nov-10 17:28N 69°41' E 018°44'0 0.0
2017-Nov-10 16:58N 69°41' E 018°44'0 0.0
2017-Nov-10 16:28N 69°41' E 018°44'0 0.0
2017-Nov-10 15:58N 69°41' E 018°44'0 0.0
2017-Nov-10 15:28N 69°41' E 018°44'0 0.0
2017-Nov-10 14:58N 69°41' E 018°44'2 3.4
2017-Nov-10 14:30N 69°42' E 018°40'4 7.4
2017-Nov-10 14:00N 69°46' E 018°40'3 5.9
2017-Nov-10 13:30N 69°48' E 018°35'4 3.3
2017-Nov-10 12:12N 69°47' E 018°24'0 0.3
2017-Nov-10 11:52N 69°47' E 018°24'0 0.1
2017-Nov-10 09:26N 69°47' E 018°24'0 0.0
2017-Nov-10 08:50N 69°47' E 018°24'0 0.0
2017-Nov-10 08:08N 69°47' E 018°24'0 0.0
2017-Nov-10 07:38N 69°47' E 018°24'0 0.0
2017-Nov-10 06:50N 69°47' E 018°24'0 0.0
2017-Nov-10 06:26N 69°47' E 018°24'0 0.0
2017-Nov-10 05:50N 69°47' E 018°24'0 0.0
2017-Nov-10 05:08N 69°47' E 018°24'0 0.0
2017-Nov-10 04:38N 69°47' E 018°24'0 0.0
2017-Nov-10 03:26N 69°47' E 018°24'0 0.0
2017-Nov-10 02:20N 69°47' E 018°24'0 0.0
2017-Nov-10 01:08N 69°47' E 018°24'0 0.0
2017-Nov-10 00:20N 69°47' E 018°24'0 0.0
2017-Nov-09 23:44N 69°47' E 018°24'0 0.0
2017-Nov-09 23:20N 69°47' E 018°24'0 0.0
2017-Nov-09 22:32N 69°47' E 018°24'0 0.0
2017-Nov-09 22:20N 69°47' E 018°24'0 0.0
2017-Nov-09 21:32N 69°47' E 018°24'0 0.0
2017-Nov-09 20:44N 69°47' E 018°24'0 0.0
2017-Nov-09 20:08N 69°47' E 018°24'0 0.0
2017-Nov-09 13:20N 69°47' E 018°24'0 0.0
2017-Nov-09 00:08N 69°47' E 018°24'0 0.0
2017-Nov-08 23:38N 69°47' E 018°24'0 0.0
2017-Nov-08 18:38N 69°47' E 018°24'0 0.0
2017-Nov-08 17:14N 69°47' E 018°24'0 0.0
2017-Nov-08 08:02N 69°47' E 018°24'0 0.0
2017-Nov-08 07:38N 69°47' E 018°24'0 0.0
2017-Nov-08 07:26N 69°47' E 018°24'0 0.0
2017-Nov-08 05:56N 69°47' E 018°24'0 0.0
2017-Nov-08 05:02N 69°47' E 018°24'0 0.0
2017-Nov-08 04:38N 69°47' E 018°24'0 0.0
2017-Nov-08 04:14N 69°47' E 018°24'0 0.0
2017-Nov-07 22:02N 69°47' E 018°24'0 0.0
2017-Nov-07 17:14N 69°47' E 018°24'0 0.0
2017-Nov-07 01:44N 69°47' E 018°24'0 0.0
2017-Nov-07 00:32N 69°47' E 018°24'  

Dump ship's entire track history